Time;durP1;ratioP1;P1;durP2;ratioP2;P2;SDS_P1;SDS_P2;PMS_P1;PMS_P2;Temp;Humidity;BMP_temperature;BMP_pressure;BME280_temperature;BME280_humidity;BME280_pressure;Samples;Min_cycle;Max_cycle;Signal;HPM_P1;HPM_P2
2022/04/07 00:00:06;;;;;;;1.08;0.82;;;20.30;50.70;;;;;;5001456;28;20222;-68
2022/04/07 00:02:32;;;;;;;0.85;0.85;;;20.30;50.70;;;;;;5035606;28;20237;-68
2022/04/07 00:04:57;;;;;;;0.80;0.80;;;20.30;50.70;;;;;;5035747;28;20183;-69
2022/04/07 00:07:23;;;;;;;0.63;0.63;;;20.30;50.70;;;;;;5034606;28;20294;-68
2022/04/07 00:09:49;;;;;;;0.90;0.70;;;20.30;50.70;;;;;;5034155;28;20176;-67
2022/04/07 00:12:15;;;;;;;0.70;0.70;;;20.30;50.70;;;;;;5017874;28;20173;-68
2022/04/07 00:14:40;;;;;;;0.80;0.63;;;20.30;50.70;;;;;;5034475;28;20193;-68
2022/04/07 00:17:06;;;;;;;0.93;0.80;;;20.30;50.70;;;;;;5034163;28;20206;-68
2022/04/07 00:19:32;;;;;;;0.95;0.80;;;20.30;50.70;;;;;;5001079;28;20215;-68
2022/04/07 00:21:59;;;;;;;0.80;0.80;;;20.30;50.70;;;;;;5034298;28;20226;-68
2022/04/07 00:24:25;;;;;;;1.58;0.77;;;20.30;50.80;;;;;;5029176;28;20200;-68
2022/04/07 00:26:51;;;;;;;0.60;0.60;;;20.30;50.70;;;;;;4992013;28;20275;-68
2022/04/07 00:29:17;;;;;;;0.80;0.80;;;20.30;50.70;;;;;;5017230;28;20194;-67
2022/04/07 00:31:44;;;;;;;0.60;0.60;;;20.30;50.70;;;;;;5017716;28;20192;-68
2022/04/07 00:34:11;;;;;;;0.70;0.70;;;20.30;50.70;;;;;;5033904;28;20191;-68
2022/04/07 00:36:38;;;;;;;1.10;0.88;;;20.30;50.70;;;;;;5017654;28;20188;-68
2022/04/07 00:39:04;;;;;;;1.63;0.77;;;20.30;50.70;;;;;;5017109;28;20218;-68
2022/04/07 00:41:30;;;;;;;2.25;0.93;;;20.30;50.70;;;;;;5035095;28;20179;-67
2022/04/07 00:43:56;;;;;;;0.70;0.70;;;20.30;50.70;;;;;;5017254;28;20175;-68
2022/04/07 00:46:22;;;;;;;0.70;0.70;;;20.30;50.70;;;;;;5033601;28;20180;-68
2022/04/07 00:48:47;;;;;;;0.70;0.70;;;20.30;50.70;;;;;;5017131;28;20206;-68
2022/04/07 00:51:13;;;;;;;0.73;0.68;;;20.30;50.80;;;;;;5034934;28;20209;-68
2022/04/07 00:53:39;;;;;;;1.40;0.70;;;20.30;50.80;;;;;;5033592;28;20210;-68
2022/04/07 00:56:09;;;;;;;0.73;0.73;;;20.30;50.70;;;;;;5026497;28;20175;-68
2022/04/07 00:58:35;;;;;;;1.27;0.68;;;20.30;50.80;;;;;;5000700;28;20306;-68
2022/04/07 01:01:01;;;;;;;0.65;0.60;;;20.30;50.70;;;;;;5014329;28;20180;-68
2022/04/07 01:03:27;;;;;;;0.70;0.70;;;20.30;50.70;;;;;;5013888;28;20188;-68
2022/04/07 01:05:53;;;;;;;0.60;0.60;;;20.30;50.70;;;;;;5014786;28;20180;-68
2022/04/07 01:08:19;;;;;;;0.90;0.60;;;20.30;50.80;;;;;;5013425;28;20314;-68
2022/04/07 01:10:47;;;;;;;0.52;0.52;;;20.30;50.80;;;;;;5014900;28;20179;-68
2022/04/07 01:13:13;;;;;;;0.70;0.68;;;20.30;50.70;;;;;;5013297;28;20192;-67
2022/04/07 01:15:39;;;;;;;0.70;0.70;;;20.30;50.80;;;;;;5013522;28;20192;-68
2022/04/07 01:18:05;;;;;;;0.60;0.60;;;20.30;50.70;;;;;;4996883;28;20208;-68
2022/04/07 01:20:31;;;;;;;0.82;0.82;;;20.30;50.70;;;;;;5013320;28;20192;-68
2022/04/07 01:22:58;;;;;;;0.77;0.77;;;20.30;50.70;;;;;;5013222;28;20183;-68
2022/04/07 01:25:27;;;;;;;0.60;0.57;;;20.30;50.80;;;;;;5019637;28;20183;-68
2022/04/07 01:27:54;;;;;;;0.65;0.65;;;20.30;50.80;;;;;;5024461;28;20298;-68
2022/04/07 01:30:22;;;;;;;0.63;0.63;;;20.30;50.80;;;;;;5032788;28;20183;-68
2022/04/07 01:32:53;;;;;;;0.73;0.57;;;20.30;50.80;;;;;;5016294;28;20179;-68
2022/04/07 01:35:22;;;;;;;0.75;0.60;;;20.30;50.80;;;;;;4999978;28;20207;-68
2022/04/07 01:37:49;;;;;;;0.95;0.80;;;20.30;50.80;;;;;;5032646;28;20211;-68
2022/04/07 01:40:18;;;;;;;0.70;0.70;;;20.30;50.80;;;;;;5016208;28;20254;-68
2022/04/07 01:42:47;;;;;;;0.60;0.60;;;20.30;50.80;;;;;;4999786;28;20183;-68
2022/04/07 01:45:14;;;;;;;1.13;0.70;;;20.30;50.80;;;;;;5033758;28;20684;-68
2022/04/07 01:47:43;;;;;;;0.68;0.68;;;20.30;50.80;;;;;;5032575;28;20207;-68
2022/04/07 01:50:11;;;;;;;0.68;0.68;;;20.30;50.80;;;;;;5032464;28;20187;-68
2022/04/07 01:52:39;;;;;;;0.80;0.75;;;20.30;50.70;;;;;;5015843;28;20179;-68
2022/04/07 01:55:06;;;;;;;0.50;0.50;;;20.30;50.70;;;;;;4996332;28;20188;-68
2022/04/07 01:57:33;;;;;;;0.70;0.70;;;20.30;50.80;;;;;;5004560;28;20207;-68
2022/04/07 02:00:00;;;;;;;0.60;0.60;;;20.20;50.70;;;;;;5012682;28;20223;-68
2022/04/07 02:02:28;;;;;;;0.68;0.68;;;20.30;50.80;;;;;;5012590;28;20184;-68
2022/04/07 02:05:08;;;;;;;0.80;0.60;;;20.30;50.80;;;;;;5012708;28;20188;-68
2022/04/07 02:07:36;;;;;;;0.60;0.60;;;20.20;50.70;;;;;;5012364;28;20242;-68
2022/04/07 02:10:08;;;;;;;0.45;0.45;;;20.30;50.80;;;;;;5012090;28;20190;-68
2022/04/07 02:12:35;;;;;;;0.60;0.60;;;20.20;50.70;;;;;;5011573;28;20195;-67
2022/04/07 02:15:00;;;;;;;0.60;0.60;;;20.20;50.70;;;;;;4996214;28;20192;-68
2022/04/07 02:17:26;;;;;;;0.60;0.60;;;20.20;50.70;;;;;;5012194;28;20294;-68
2022/04/07 02:19:56;;;;;;;0.50;0.50;;;20.20;50.70;;;;;;4995689;28;20299;-68
2022/04/07 02:22:22;;;;;;;0.50;0.50;;;20.20;50.70;;;;;;5012168;28;20195;-68
2022/04/07 02:24:48;;;;;;;0.50;0.50;;;20.20;50.60;;;;;;5014115;28;20184;-68
2022/04/07 02:27:16;;;;;;;0.60;0.60;;;20.30;50.70;;;;;;5023325;28;20290;-68
2022/04/07 02:29:43;;;;;;;0.60;0.60;;;20.30;50.80;;;;;;4998892;28;20558;-68
2022/04/07 02:32:11;;;;;;;0.40;0.40;;;20.20;50.60;;;;;;5031767;28;20209;-68
2022/04/07 02:34:39;;;;;;;0.50;0.50;;;20.20;50.60;;;;;;5015363;28;20587;-68
2022/04/07 02:39:57;;;;;;;0.60;0.60;;;20.20;50.60;;;;;;5030045;28;20650;-69
2022/04/07 02:42:23;;;;;;;0.63;0.50;;;20.20;50.60;;;;;;5031764;28;20195;-70
2022/04/07 02:44:48;;;;;;;0.50;0.50;;;20.20;50.60;;;;;;5032574;28;20175;-70
2022/04/07 02:47:15;;;;;;;0.50;0.50;;;20.20;50.60;;;;;;5013862;28;20188;-70
2022/04/07 02:49:41;;;;;;;0.60;0.50;;;20.20;50.70;;;;;;5013678;28;20187;-69
2022/04/07 02:52:11;;;;;;;0.50;0.50;;;20.20;50.60;;;;;;5012791;28;20176;-69
2022/04/07 02:54:37;;;;;;;0.40;0.40;;;20.20;50.60;;;;;;4995022;28;20198;-69
2022/04/07 02:57:05;;;;;;;0.40;0.40;;;20.20;50.60;;;;;;5012891;28;20180;-69
2022/04/07 02:59:32;;;;;;;0.77;0.60;;;20.20;50.60;;;;;;4995153;28;20274;-70
2022/04/07 03:01:58;;;;;;;0.63;0.63;;;20.20;50.60;;;;;;5012777;28;20547;-70
2022/04/07 03:04:24;;;;;;;0.75;0.70;;;20.20;50.60;;;;;;5011519;28;20191;-70
2022/04/07 03:06:54;;;;;;;0.45;0.45;;;20.20;50.60;;;;;;4995052;28;20180;-70
2022/04/07 03:09:20;;;;;;;0.52;0.50;;;20.20;50.60;;;;;;5012399;28;20239;-70
2022/04/07 03:11:46;;;;;;;0.50;0.40;;;20.20;50.50;;;;;;5011417;28;20191;-69
2022/04/07 03:14:14;;;;;;;0.60;0.60;;;20.20;50.50;;;;;;4995155;28;20187;-69
2022/04/07 03:16:41;;;;;;;0.70;0.70;;;20.20;50.50;;;;;;5011387;28;20192;-69
2022/04/07 03:19:07;;;;;;;0.52;0.47;;;20.20;50.50;;;;;;4994946;28;20278;-69
2022/04/07 03:21:33;;;;;;;0.60;0.60;;;20.20;50.50;;;;;;4995311;28;20184;-70
2022/04/07 03:23:59;;;;;;;0.50;0.50;;;20.20;50.50;;;;;;4999730;28;20670;-69
2022/04/07 03:26:24;;;;;;;0.50;0.50;;;20.20;50.50;;;;;;5017485;28;20179;-70
2022/04/07 03:28:50;;;;;;;0.43;0.43;;;20.20;50.50;;;;;;5001535;28;20211;-70
2022/04/07 03:31:16;;;;;;;0.55;0.55;;;20.20;50.50;;;;;;5018852;28;20192;-69
2022/04/07 03:33:41;;;;;;;0.52;0.52;;;20.20;50.50;;;;;;5001553;28;20200;-69
2022/04/07 03:36:07;;;;;;;0.60;0.60;;;20.20;50.50;;;;;;5001187;28;20274;-69
2022/04/07 03:38:33;;;;;;;0.73;0.40;;;20.10;50.30;;;;;;5018572;28;20224;-70
2022/04/07 03:40:59;;;;;;;0.57;0.57;;;20.20;50.40;;;;;;5001200;28;20215;-70
2022/04/07 03:43:24;;;;;;;0.50;0.50;;;20.20;50.50;;;;;;5000975;28;20696;-70
2022/04/07 03:45:50;;;;;;;0.50;0.43;;;20.10;50.40;;;;;;5018708;28;20184;-70
2022/04/07 03:48:16;;;;;;;0.63;0.50;;;20.20;50.50;;;;;;5017737;28;20214;-70
2022/04/07 03:50:42;;;;;;;0.47;0.47;;;20.20;50.50;;;;;;5001358;28;20555;-69
2022/04/07 03:53:08;;;;;;;0.32;0.32;;;20.10;50.40;;;;;;5001275;28;20199;-70
2022/04/07 03:55:34;;;;;;;0.63;0.60;;;20.20;50.50;;;;;;5000978;28;20192;-69
2022/04/07 03:58:00;;;;;;;0.80;0.80;;;20.20;50.40;;;;;;4997702;28;20212;-69
2022/04/07 04:00:26;;;;;;;0.80;0.80;;;20.20;50.50;;;;;;4997926;28;20176;-69
2022/04/07 04:02:52;;;;;;;0.65;0.63;;;20.20;50.40;;;;;;4981618;28;20189;-70
2022/04/07 04:05:19;;;;;;;0.60;0.60;;;20.20;50.50;;;;;;4997769;28;20176;-70
2022/04/07 04:07:45;;;;;;;1.10;0.90;;;20.20;50.40;;;;;;4981457;28;20205;-70
2022/04/07 04:10:11;;;;;;;1.50;1.40;;;20.20;50.40;;;;;;4981387;28;20211;-69
2022/04/07 04:12:37;;;;;;;2.55;2.35;;;20.20;50.40;;;;;;4998998;28;20184;-70
2022/04/07 04:15:04;;;;;;;1.42;1.33;;;20.20;50.40;;;;;;4981489;28;20191;-69
2022/04/07 04:17:33;;;;;;;1.70;1.60;;;20.20;50.40;;;;;;4997573;28;20277;-69
2022/04/07 04:20:00;;;;;;;1.40;1.30;;;20.20;50.40;;;;;;4997724;28;20205;-70
2022/04/07 04:22:26;;;;;;;1.10;1.10;;;20.20;50.30;;;;;;4981354;28;20189;-69
2022/04/07 04:24:52;;;;;;;0.82;0.80;;;20.10;50.20;;;;;;4999698;28;20279;-69
2022/04/07 04:27:18;;;;;;;1.10;1.00;;;20.10;50.30;;;;;;5018267;28;20558;-69
2022/04/07 04:29:44;;;;;;;0.80;0.80;;;20.10;50.30;;;;;;5018320;28;20218;-69
2022/04/07 04:32:10;;;;;;;0.82;0.82;;;20.10;50.20;;;;;;4984473;28;20192;-70
2022/04/07 04:34:36;;;;;;;0.70;0.70;;;20.10;50.20;;;;;;4997959;28;20192;-69
2022/04/07 04:37:02;;;;;;;1.20;0.80;;;20.10;50.30;;;;;;4997990;28;20288;-70
2022/04/07 04:39:28;;;;;;;0.90;0.90;;;20.10;50.30;;;;;;4997554;28;20220;-69
2022/04/07 04:41:54;;;;;;;0.85;0.80;;;20.10;50.30;;;;;;4997464;28;20541;-69
2022/04/07 04:44:19;;;;;;;0.90;0.90;;;20.10;50.30;;;;;;5014968;28;20188;-70
2022/04/07 04:46:45;;;;;;;0.80;0.80;;;20.10;50.30;;;;;;4997530;28;20188;-70
2022/04/07 04:49:11;;;;;;;1.45;1.00;;;20.10;50.20;;;;;;5014944;28;20208;-70
2022/04/07 04:51:36;;;;;;;0.90;0.90;;;20.10;50.20;;;;;;5014857;28;20184;-70
2022/04/07 04:54:02;;;;;;;0.70;0.70;;;20.10;50.30;;;;;;4997537;28;20172;-70
2022/04/07 04:56:28;;;;;;;1.17;0.98;;;20.10;50.30;;;;;;5013611;28;20254;-69
2022/04/07 04:58:57;;;;;;;0.80;0.80;;;20.10;50.20;;;;;;5014716;28;20623;-70
2022/04/07 05:01:24;;;;;;;0.70;0.70;;;20.10;50.30;;;;;;5014622;28;20183;-70
2022/04/07 05:03:49;;;;;;;0.70;0.70;;;20.10;50.20;;;;;;4997116;28;20617;-70
2022/04/07 05:06:15;;;;;;;0.80;0.80;;;20.10;50.20;;;;;;4997168;28;20247;-70
2022/04/07 05:08:41;;;;;;;0.70;0.70;;;20.10;50.20;;;;;;5013408;28;20212;-69
2022/04/07 05:11:07;;;;;;;0.70;0.70;;;20.10;50.20;;;;;;5014401;28;20234;-69
2022/04/07 05:13:33;;;;;;;0.60;0.60;;;20.10;50.20;;;;;;4996964;28;20222;-69
2022/04/07 05:15:59;;;;;;;0.70;0.70;;;20.10;50.30;;;;;;5013339;28;20184;-69
2022/04/07 05:18:24;;;;;;;0.80;0.80;;;20.10;50.20;;;;;;5013252;28;20231;-69
2022/04/07 05:20:50;;;;;;;0.80;0.80;;;20.10;50.30;;;;;;4997058;28;20327;-70
2022/04/07 05:23:16;;;;;;;0.70;0.70;;;20.10;50.20;;;;;;5013277;28;20286;-69
2022/04/07 05:25:42;;;;;;;0.52;0.52;;;20.10;50.20;;;;;;5012504;28;20199;-69
2022/04/07 05:28:08;;;;;;;0.80;0.80;;;20.10;50.20;;;;;;4996827;28;20231;-69
2022/04/07 05:30:33;;;;;;;0.80;0.80;;;20.10;50.20;;;;;;4996859;28;20206;-70
2022/04/07 05:32:59;;;;;;;0.88;0.80;;;20.10;50.30;;;;;;4996799;28;20175;-69
2022/04/07 05:35:28;;;;;;;0.90;0.85;;;20.10;50.20;;;;;;4996729;28;20247;-69
2022/04/07 05:38:02;;;;;;;0.77;0.75;;;20.10;50.20;;;;;;5013920;28;20211;-69
2022/04/07 05:40:29;;;;;;;0.70;0.70;;;20.10;50.30;;;;;;4996479;28;20571;-69
2022/04/07 05:42:56;;;;;;;0.95;0.80;;;20.10;50.30;;;;;;4980421;28;20187;-69
2022/04/07 05:45:22;;;;;;;1.15;0.75;;;20.10;50.30;;;;;;4996614;28;20188;-69
2022/04/07 05:47:49;;;;;;;1.23;0.73;;;20.10;50.30;;;;;;4996579;28;20228;-69
2022/04/07 05:50:15;;;;;;;1.00;0.70;;;20.10;50.30;;;;;;4995981;28;20223;-69
2022/04/07 05:52:41;;;;;;;1.00;0.70;;;20.10;50.30;;;;;;4996086;28;20250;-69
2022/04/07 05:55:07;;;;;;;0.60;0.60;;;20.10;50.30;;;;;;5013520;28;20192;-69
2022/04/07 05:57:33;;;;;;;0.85;0.80;;;20.10;50.30;;;;;;5012620;28;20203;-69
2022/04/07 06:00:16;;;;;;;0.82;0.80;;;20.10;50.30;;;;;;5012564;28;20749;-69
2022/04/07 06:02:42;;;;;;;1.75;0.60;;;20.10;50.30;;;;;;4996130;28;20603;-70
2022/04/07 06:05:10;;;;;;;0.68;0.68;;;20.10;50.30;;;;;;5012688;28;20235;-70
2022/04/07 06:07:37;;;;;;;0.70;0.70;;;20.10;50.30;;;;;;5013637;28;20268;-69
2022/04/07 06:10:05;;;;;;;0.68;0.68;;;20.10;50.20;;;;;;4995801;28;20278;-69
2022/04/07 06:12:31;;;;;;;0.73;0.60;;;20.10;50.20;;;;;;5013450;28;20192;-70
2022/04/07 06:14:57;;;;;;;0.73;0.70;;;20.10;50.20;;;;;;4995916;28;20283;-70
2022/04/07 06:17:41;;;;;;;0.70;0.70;;;20.10;50.20;;;;;;4995653;28;20198;-69
2022/04/07 06:20:10;;;;;;;0.75;0.70;;;20.10;50.20;;;;;;4995456;28;20211;-69
2022/04/07 06:22:37;;;;;;;0.60;0.60;;;20.10;50.20;;;;;;4995661;28;20183;-69
2022/04/07 06:25:03;;;;;;;0.60;0.60;;;20.10;50.30;;;;;;4995726;28;20188;-69
2022/04/07 06:27:38;;;;;;;0.63;0.63;;;20.10;50.20;;;;;;5011897;28;20204;-69
2022/04/07 06:30:06;;;;;;;0.75;0.70;;;20.20;50.30;;;;;;4995684;28;20203;-69
2022/04/07 06:32:32;;;;;;;0.70;0.70;;;20.20;50.20;;;;;;5011829;28;20640;-69
2022/04/07 06:34:59;;;;;;;1.15;0.75;;;20.20;50.20;;;;;;4995775;28;20207;-69
2022/04/07 06:37:25;;;;;;;0.88;0.57;;;20.20;50.20;;;;;;5012820;28;20176;-69
2022/04/07 06:39:59;;;;;;;0.60;0.60;;;20.20;50.20;;;;;;4995485;28;20227;-69
2022/04/07 06:42:25;;;;;;;0.55;0.55;;;20.20;50.10;;;;;;5012938;28;20259;-70
2022/04/07 06:44:51;;;;;;;0.65;0.65;;;20.20;50.10;;;;;;5011649;28;20227;-69
2022/04/07 06:47:16;;;;;;;0.60;0.60;;;20.20;50.10;;;;;;4995282;28;20686;-69
2022/04/07 06:49:42;;;;;;;0.60;0.60;;;20.20;50.20;;;;;;4995169;28;20195;-70
2022/04/07 06:52:08;;;;;;;0.80;0.60;;;20.20;50.20;;;;;;4995372;28;20180;-70
2022/04/07 06:54:34;;;;;;;1.98;1.00;;;20.20;50.20;;;;;;4995464;28;20219;-69
2022/04/07 06:56:59;;;;;;;0.98;0.60;;;20.20;50.10;;;;;;5012127;28;20192;-69
2022/04/07 06:59:25;;;;;;;0.82;0.70;;;20.20;50.20;;;;;;4994957;28;20204;-70
2022/04/07 07:01:51;;;;;;;0.60;0.60;;;20.20;50.30;;;;;;4994877;28;20196;-69
2022/04/07 07:04:16;;;;;;;0.93;0.63;;;20.20;50.20;;;;;;4994893;28;20191;-69
2022/04/07 07:06:42;;;;;;;0.88;0.70;;;20.20;50.20;;;;;;4995050;28;20188;-69
2022/04/07 07:09:10;;;;;;;1.67;0.68;;;20.20;50.20;;;;;;5012605;28;20204;-69
2022/04/07 07:11:35;;;;;;;0.95;0.63;;;20.20;50.20;;;;;;5011214;28;20180;-69
2022/04/07 07:14:01;;;;;;;1.52;0.80;;;20.20;50.20;;;;;;4995321;28;20310;-70
2022/04/07 07:16:27;;;;;;;0.80;0.80;;;20.20;50.20;;;;;;4995158;28;20188;-69
2022/04/07 07:18:52;;;;;;;0.57;0.57;;;20.20;50.20;;;;;;4994237;28;20212;-69
2022/04/07 07:21:18;;;;;;;0.70;0.70;;;20.20;50.20;;;;;;5011596;28;20184;-69
2022/04/07 07:23:44;;;;;;;0.80;0.80;;;20.20;50.20;;;;;;4994932;28;20183;-69
2022/04/07 07:26:11;;;;;;;0.52;0.52;;;20.20;50.20;;;;;;5012197;28;20242;-69
2022/04/07 07:28:37;;;;;;;1.00;0.63;;;20.30;50.20;;;;;;4994746;28;20236;-69
2022/04/07 07:31:03;;;;;;;1.33;0.60;;;20.20;50.20;;;;;;4994634;28;20285;-69
2022/04/07 07:33:29;;;;;;;0.50;0.50;;;20.20;50.10;;;;;;4994896;28;20203;-70
2022/04/07 07:35:55;;;;;;;0.57;0.55;;;20.30;50.20;;;;;;5011361;28;20192;-69
2022/04/07 07:38:22;;;;;;;0.75;0.60;;;20.20;50.10;;;;;;4994400;28;20235;-69
2022/04/07 07:40:48;;;;;;;0.73;0.73;;;20.20;50.20;;;;;;5012150;28;20686;-70
2022/04/07 07:43:14;;;;;;;1.13;0.70;;;20.20;50.20;;;;;;4994956;28;20208;-69
2022/04/07 07:45:40;;;;;;;0.68;0.68;;;20.20;50.20;;;;;;4994457;28;20866;-69
2022/04/07 07:48:07;;;;;;;0.65;0.65;;;20.20;50.20;;;;;;4994608;28;20200;-70
2022/04/07 07:50:33;;;;;;;1.70;0.70;;;20.20;50.20;;;;;;5010902;28;20559;-69
2022/04/07 07:52:58;;;;;;;0.95;0.60;;;20.20;50.20;;;;;;4994775;28;20188;-69
2022/04/07 07:55:24;;;;;;;0.75;0.50;;;20.20;50.30;;;;;;5011069;28;20188;-69
2022/04/07 07:57:50;;;;;;;0.82;0.82;;;20.20;50.20;;;;;;5010957;28;20246;-69
2022/04/07 08:00:17;;;;;;;0.50;0.50;;;20.20;50.30;;;;;;4994553;28;20210;-69
2022/04/07 08:02:43;;;;;;;1.20;0.80;;;20.20;50.30;;;;;;4994789;28;20199;-69
2022/04/07 08:05:10;;;;;;;0.60;0.60;;;20.20;50.20;;;;;;5010906;28;20180;-70
2022/04/07 08:07:42;;;;;;;1.10;0.60;;;20.20;50.20;;;;;;5011962;28;20254;-70
2022/04/07 08:10:11;;;;;;;0.63;0.63;;;20.20;50.20;;;;;;4996433;28;20218;-69
2022/04/07 08:12:38;;;;;;;1.02;0.60;;;20.20;50.20;;;;;;5015707;28;20219;-69
2022/04/07 08:15:05;;;;;;;0.50;0.50;;;20.20;50.20;;;;;;5015628;28;20188;-69
2022/04/07 08:17:31;;;;;;;0.50;0.50;;;20.20;50.30;;;;;;5015592;28;20716;-69
2022/04/07 08:19:57;;;;;;;0.60;0.60;;;20.20;50.20;;;;;;4997886;28;20242;-69
2022/04/07 08:22:23;;;;;;;0.75;0.50;;;20.20;50.30;;;;;;4982035;28;20192;-70
2022/04/07 08:24:48;;;;;;;0.88;0.68;;;20.20;50.30;;;;;;4997915;28;20206;-69
2022/04/07 08:27:14;;;;;;;0.80;0.60;;;20.20;50.20;;;;;;4997826;28;20218;-69
2022/04/07 08:29:40;;;;;;;0.52;0.50;;;20.20;50.30;;;;;;5015245;28;20191;-69
2022/04/07 08:32:06;;;;;;;1.35;0.50;;;20.20;50.20;;;;;;5014020;28;20230;-69
2022/04/07 08:34:32;;;;;;;0.90;0.60;;;20.20;50.20;;;;;;4997820;28;20675;-69
2022/04/07 08:36:58;;;;;;;0.50;0.50;;;20.20;50.20;;;;;;5015619;28;20263;-69
2022/04/07 08:39:24;;;;;;;0.68;0.68;;;20.20;50.20;;;;;;5063302;22;20321;-68
2022/04/07 08:41:53;;;;;;;0.50;0.50;;;20.20;50.20;;;;;;5015652;28;20187;-68
2022/04/07 08:44:19;;;;;;;1.33;0.40;;;20.20;50.20;;;;;;4999396;28;20187;-68
2022/04/07 08:46:53;;;;;;;0.55;0.55;;;20.20;50.20;;;;;;5033666;28;20190;-68
2022/04/07 08:49:22;;;;;;;0.60;0.60;;;20.20;50.10;;;;;;5027498;28;20294;-67
2022/04/07 08:51:52;;;;;;;0.40;0.40;;;20.20;50.20;;;;;;5033522;28;20190;-68
2022/04/07 08:54:22;;;;;;;0.60;0.60;;;20.20;50.10;;;;;;5033676;28;20172;-67
2022/04/07 08:56:49;;;;;;;0.70;0.60;;;20.20;50.10;;;;;;5033349;28;20404;-68
2022/04/07 08:59:16;;;;;;;0.95;0.70;;;20.20;50.10;;;;;;5049837;28;20215;-68
2022/04/07 09:01:42;;;;;;;1.05;0.50;;;20.20;50.10;;;;;;5050127;28;20277;-67
2022/04/07 09:04:12;;;;;;;0.40;0.40;;;20.20;50.10;;;;;;5033249;28;20183;-67
2022/04/07 09:06:41;;;;;;;0.50;0.50;;;20.20;50.10;;;;;;5033668;28;20188;-68
2022/04/07 09:09:18;;;;;;;0.63;0.40;;;20.30;50.10;;;;;;5049811;28;20211;-67
2022/04/07 09:11:44;;;;;;;0.63;0.60;;;20.30;50.10;;;;;;5049888;28;20175;-67
2022/04/07 09:14:12;;;;;;;0.60;0.60;;;20.30;50.10;;;;;;5056867;28;20187;-67
2022/04/07 09:16:39;;;;;;;0.60;0.60;;;20.30;50.10;;;;;;5033343;28;20187;-67
2022/04/07 09:19:08;;;;;;;0.80;0.50;;;20.30;50.10;;;;;;5049618;28;20219;-67
2022/04/07 09:21:36;;;;;;;1.25;0.57;;;20.30;50.10;;;;;;5032711;28;20187;-67
2022/04/07 09:24:07;;;;;;;0.63;0.50;;;20.30;50.10;;;;;;5032972;28;20663;-68
2022/04/07 09:26:41;;;;;;;0.47;0.47;;;20.30;50.10;;;;;;5032948;28;20682;-68
2022/04/07 09:29:14;;;;;;;0.50;0.50;;;20.30;50.10;;;;;;4996839;28;20584;-68
2022/04/07 09:31:53;;;;;;;0.98;0.55;;;20.30;50.10;;;;;;4998401;28;20270;-68
2022/04/07 09:34:32;;;;;;;0.40;0.40;;;20.30;50.10;;;;;;5032876;28;20186;-68
2022/04/07 09:37:08;;;;;;;0.50;0.40;;;20.30;50.10;;;;;;5029568;28;20234;-68
2022/04/07 09:39:39;;;;;;;0.90;0.70;;;20.30;50.10;;;;;;5021701;28;20207;-68
2022/04/07 09:42:19;;;;;;;0.50;0.50;;;20.30;50.10;;;;;;5012757;28;20188;-68
2022/04/07 09:44:50;;;;;;;0.60;0.40;;;20.30;50.10;;;;;;5029428;28;20195;-68
2022/04/07 09:47:16;;;;;;;0.60;0.50;;;20.30;50.20;;;;;;5032669;28;20207;-68
2022/04/07 09:49:42;;;;;;;0.60;0.60;;;20.30;50.10;;;;;;5032460;28;20310;-68
2022/04/07 09:52:11;;;;;;;0.40;0.40;;;20.30;50.20;;;;;;5049116;28;20640;-69
2022/04/07 09:54:41;;;;;;;0.60;0.60;;;20.30;50.10;;;;;;5032216;28;20650;-69
2022/04/07 09:57:09;;;;;;;0.50;0.40;;;20.30;50.10;;;;;;5032288;28;20211;-68
2022/04/07 09:59:40;;;;;;;0.40;0.40;;;20.30;50.10;;;;;;5033508;28;20206;-68
2022/04/07 10:02:06;;;;;;;0.65;0.47;;;20.30;50.20;;;;;;5032335;28;20237;-69
2022/04/07 10:04:37;;;;;;;0.40;0.40;;;20.20;50.10;;;;;;5033417;28;20179;-68
2022/04/07 10:07:05;;;;;;;0.50;0.50;;;20.30;50.80;;;;;;5032132;28;20176;-69
2022/04/07 10:09:33;;;;;;;0.85;0.40;;;20.30;50.20;;;;;;5032461;28;20207;-65
2022/04/07 10:12:02;;;;;;;1.35;0.60;;;20.30;50.20;;;;;;5021168;28;20195;-69
2022/04/07 10:14:29;;;;;;;0.50;0.50;;;20.30;50.20;;;;;;5015733;28;20270;-69
2022/04/07 10:16:54;;;;;;;0.57;0.57;;;20.30;50.20;;;;;;5033017;28;20201;-69
2022/04/07 10:19:42;;;;;;;0.70;0.60;;;20.30;50.20;;;;;;5031712;28;20211;-68
2022/04/07 10:22:36;;;;;;;0.45;0.45;;;20.30;50.30;;;;;;5048530;28;20184;-68
2022/04/07 10:25:05;;;;;;;0.52;0.50;;;20.30;50.20;;;;;;5028764;28;20180;-68
2022/04/07 10:27:39;;;;;;;0.77;0.50;;;20.30;50.30;;;;;;5028605;28;20554;-69
2022/04/07 10:30:15;;;;;;;0.60;0.50;;;20.30;50.30;;;;;;5031351;28;20195;-69
2022/04/07 10:32:44;;;;;;;0.68;0.60;;;20.30;50.30;;;;;;5032048;28;20245;-68
2022/04/07 10:35:28;;;;;;;0.60;0.60;;;20.30;50.30;;;;;;5031695;28;20620;-68
2022/04/07 10:37:54;;;;;;;6.45;0.70;;;20.30;50.60;;;;;;5030273;28;20199;-68
2022/04/07 10:40:49;;;;;;;0.57;0.57;;;20.30;50.50;;;;;;5031519;28;20191;-68
2022/04/07 10:43:14;;;;;;;0.90;0.52;;;20.30;50.50;;;;;;5031625;28;20199;-68
2022/04/07 10:46:02;;;;;;;1.48;0.57;;;20.30;50.50;;;;;;5047848;28;20191;-68
2022/04/07 10:48:35;;;;;;;1.75;0.77;;;20.30;50.50;;;;;;5031778;28;20238;-67
2022/04/07 10:51:08;;;;;;;0.60;0.55;;;20.30;50.50;;;;;;5047981;28;20374;-68
2022/04/07 10:53:59;;;;;;;1.02;0.60;;;20.30;50.60;;;;;;5016172;28;20194;-69
2022/04/07 10:56:38;;;;;;;0.82;0.50;;;20.30;50.50;;;;;;5026615;28;20218;-69
2022/04/07 10:59:13;;;;;;;1.55;0.80;;;20.30;50.50;;;;;;5025875;28;20215;-68
2022/04/07 11:01:42;;;;;;;0.77;0.47;;;20.30;50.50;;;;;;5031487;28;20202;-68
2022/04/07 11:04:17;;;;;;;0.50;0.43;;;20.30;50.40;;;;;;5047903;28;20179;-69
2022/04/07 11:07:09;;;;;;;0.80;0.60;;;20.30;50.50;;;;;;5031086;28;20186;-68
2022/04/07 11:09:46;;;;;;;0.95;0.60;;;20.30;50.40;;;;;;5020541;28;20286;-69
2022/04/07 11:12:40;;;;;;;0.47;0.47;;;20.30;50.40;;;;;;5031986;28;20174;-69
2022/04/07 11:15:05;;;;;;;1.45;0.63;;;20.30;50.40;;;;;;5030689;28;20191;-68
2022/04/07 11:17:34;;;;;;;1.17;0.50;;;20.30;50.50;;;;;;5035433;28;20218;-69
2022/04/07 11:20:19;;;;;;;1.88;0.52;;;20.40;50.60;;;;;;5032132;28;20246;-68
2022/04/07 11:23:09;;;;;;;1.58;0.50;;;20.40;50.60;;;;;;5031242;28;20183;-68
2022/04/07 11:25:41;;;;;;;0.60;0.60;;;20.30;51.10;;;;;;5030769;28;20725;-68
2022/04/07 11:28:15;;;;;;;1.48;0.60;;;20.30;50.50;;;;;;5031888;28;20203;-68
2022/04/07 11:30:51;;;;;;;2.20;0.77;;;20.30;50.50;;;;;;5030739;28;20179;-68
2022/04/07 11:33:26;;;;;;;2.17;0.70;;;20.30;50.50;;;;;;5044395;28;20192;-68
2022/04/07 11:36:00;;;;;;;0.80;0.40;;;20.30;50.50;;;;;;5011325;28;20262;-68
2022/04/07 11:38:27;;;;;;;0.50;0.50;;;20.30;50.50;;;;;;5027582;28;20254;-68
2022/04/07 11:41:00;;;;;;;1.17;0.55;;;20.40;50.90;;;;;;5027672;28;20184;-68
2022/04/07 11:43:27;;;;;;;3.05;0.77;;;20.40;50.90;;;;;;5031691;28;20215;-68
2022/04/07 11:45:54;;;;;;;1.17;0.50;;;20.40;50.80;;;;;;5034059;28;20718;-68
2022/04/07 11:48:29;;;;;;;2.85;0.80;;;20.30;50.80;;;;;;5034995;28;20203;-68
2022/04/07 11:51:00;;;;;;;0.45;0.45;;;20.30;50.80;;;;;;5034983;28;20254;-68
2022/04/07 11:53:30;;;;;;;0.55;0.55;;;20.30;50.80;;;;;;5034679;28;20179;-68
2022/04/07 11:56:20;;;;;;;1.75;0.60;;;20.30;50.80;;;;;;5051505;28;20194;-68
2022/04/07 11:59:00;;;;;;;2.20;0.77;;;20.30;50.80;;;;;;5050977;28;20204;-68
2022/04/07 12:01:28;;;;;;;3.42;0.70;;;20.30;50.80;;;;;;5051052;28;20213;-68
2022/04/07 12:04:00;;;;;;;4.05;0.85;;;20.30;50.80;;;;;;5051152;28;20219;-68
2022/04/07 12:06:40;;;;;;;1.02;0.60;;;20.30;50.80;;;;;;5050928;28;20262;-68
2022/04/07 12:09:07;;;;;;;1.38;0.60;;;20.30;50.80;;;;;;5033574;28;20211;-66
2022/04/07 12:11:37;;;;;;;1.58;0.93;;;20.30;50.80;;;;;;5014735;28;20199;-68
2022/04/07 12:14:10;;;;;;;1.55;0.50;;;20.30;51.40;;;;;;5025603;28;20578;-68
2022/04/07 12:16:47;;;;;;;1.20;0.70;;;20.30;50.80;;;;;;5034460;28;20202;-68
2022/04/07 12:19:13;;;;;;;1.67;0.60;;;20.30;50.80;;;;;;5034397;28;20280;-68
2022/04/07 12:22:05;;;;;;;1.63;0.65;;;20.30;50.80;;;;;;5033974;28;20183;-68
2022/04/07 12:24:31;;;;;;;1.05;0.60;;;20.30;50.80;;;;;;4996776;28;20254;-68
2022/04/07 12:26:59;;;;;;;1.13;0.57;;;20.30;50.80;;;;;;5042082;28;20176;-69
2022/04/07 12:29:31;;;;;;;0.85;0.60;;;20.30;50.80;;;;;;5029114;28;20230;-68
2022/04/07 12:32:01;;;;;;;2.38;0.50;;;20.30;50.80;;;;;;5057804;28;20671;-68
2022/04/07 12:34:27;;;;;;;1.70;0.55;;;20.30;50.80;;;;;;5014082;28;20299;-68
2022/04/07 12:36:53;;;;;;;0.68;0.50;;;20.30;50.80;;;;;;5014251;28;20186;-68
2022/04/07 12:39:20;;;;;;;1.15;0.70;;;20.30;50.80;;;;;;5014160;28;20227;-68
2022/04/07 12:41:54;;;;;;;0.77;0.60;;;20.30;50.80;;;;;;5025973;28;20198;-68
2022/04/07 12:44:23;;;;;;;1.05;0.70;;;20.30;50.80;;;;;;5033925;28;20197;-68
2022/04/07 12:46:55;;;;;;;0.50;0.50;;;20.30;50.80;;;;;;5050488;28;20557;-68
2022/04/07 12:49:33;;;;;;;1.20;0.60;;;20.30;50.80;;;;;;5050197;28;20211;-68
2022/04/07 12:52:14;;;;;;;0.60;0.57;;;20.30;50.80;;;;;;5034798;28;20258;-68
2022/04/07 12:54:57;;;;;;;2.17;0.60;;;20.20;50.80;;;;;;5032987;28;20191;-68
2022/04/07 12:57:34;;;;;;;1.23;0.50;;;20.20;50.80;;;;;;5049860;28;20201;-68